NORTHERN QUEENS  -  Freeze Warning Freeze Warning        SOUTHERN QUEENS  -  Freeze Warning Freeze Warning      

Active alerts

Northern Queens
  Details for Northern Queens Freeze Warning
Southern Queens
  Details for Southern Queens Freeze Warning


WXM80 ListenWXM80 Stop

You find our weather info also at:

UK Metoffice

WeatherCloud

Weather Underground

Northeastern Weather Network

AWEKAS

Citizen Weather Observer Program (CWOP)

HAMweather, WeatherForYou, PWS Weather


Weather Underground History page Text

Daily Summary for November 14, 2018 Units:  Both    English   Metric
« Previous Day
Next Day »
Daily Weekly Monthly Yearly Custom
  Current: High: Low: Average:
Temperature: 37.3 °F /  2.9 °C 43.0 °F /  6.1 °C 36.9 °F /  2.7 °C 39.2 °F /  4 °C
Dew Point: 25.1 °F /  -3.8 °C 34.1 °F /  1.2 °C 24.0 °F /  -4.4 °C 26.9 °F /  -2.8 °C
Humidity: 61 % 71 % 55 % 61 %
Wind Speed: 8.9 mph /  14.3 km/h 13.1 mph /  21.1 km/h - 6.5 mph /  10.5 km/h
Wind Gust: 11.5 mph /  18.5 km/h 24.2 mph /  38.9 km/h - -
Wind:NW - - WNW
Pressure: 30.32 in /  1026.6 hPa 30.32 in /  1026.6 hPa 30.09 in /  1018.8 hPa -
Precipitation: 0.00 in /  0 mm      
Historical Graphs
 
 
Tabular Data for November 14, 2018
Time Temperature Dew Point Pressure Wind Wind Speed Wind Gust Humidity Rainfall Rate (Hourly)
00:04 43.0 °F /  6.1 °C 33.9 °F /  1.1 °C 30.09 in /  1018.8 hPa NW 6.0 mph /  9.7 km/h 10.4 mph /  16.7 km/h 70 % 0.00 in /  0 mm
00:09 43.0 °F /  6.1 °C 33.9 °F /  1.1 °C 30.09 in /  1018.8 hPa WNW 5.5 mph /  8.9 km/h 8.1 mph /  13 km/h 70 % 0.00 in /  0 mm
00:14 42.9 °F /  6.1 °C 33.8 °F /  1 °C 30.09 in /  1018.8 hPa NNW 8.5 mph /  13.7 km/h 16.1 mph /  25.9 km/h 70 % 0.00 in /  0 mm
00:19 42.9 °F /  6.1 °C 33.8 °F /  1 °C 30.10 in /  1019.2 hPa WNW 4.4 mph /  7.1 km/h 10.4 mph /  16.7 km/h 70 % 0.00 in /  0 mm
00:24 42.9 °F /  6.1 °C 33.8 °F /  1 °C 30.11 in /  1019.5 hPa NNW 1.8 mph /  2.9 km/h 9.2 mph /  14.8 km/h 70 % 0.00 in /  0 mm
00:29 42.9 °F /  6.1 °C 33.4 °F /  0.8 °C 30.11 in /  1019.5 hPa North 7.0 mph /  11.3 km/h 12.7 mph /  20.4 km/h 69 % 0.00 in /  0 mm
00:34 42.9 °F /  6.1 °C 33.8 °F /  1 °C 30.11 in /  1019.5 hPa NNW 4.4 mph /  7.1 km/h 5.8 mph /  9.3 km/h 70 % 0.00 in /  0 mm
00:39 42.9 °F /  6.1 °C 33.8 °F /  1 °C 30.11 in /  1019.5 hPa NNW 4.7 mph /  7.6 km/h 11.5 mph /  18.5 km/h 70 % 0.00 in /  0 mm
00:44 42.9 °F /  6.1 °C 34.1 °F /  1.2 °C 30.12 in /  1019.9 hPa WNW 4.6 mph /  7.4 km/h 11.5 mph /  18.5 km/h 71 % 0.00 in /  0 mm
00:49 42.8 °F /  6 °C 33.7 °F /  0.9 °C 30.11 in /  1019.5 hPa NW 5.3 mph /  8.5 km/h 11.5 mph /  18.5 km/h 70 % 0.00 in /  0 mm
00:54 42.7 °F /  5.9 °C 33.2 °F /  0.7 °C 30.11 in /  1019.5 hPa NNW 9.6 mph /  15.4 km/h 12.0 mph /  19.3 km/h 69 % 0.00 in /  0 mm
00:59 42.7 °F /  5.9 °C 32.9 °F /  0.5 °C 30.12 in /  1019.9 hPa West 7.5 mph /  12.1 km/h 18.4 mph /  29.6 km/h 68 % 0.00 in /  0 mm
01:04 42.6 °F /  5.9 °C 31.7 °F /  -0.2 °C 30.12 in /  1019.9 hPa NNW 6.0 mph /  9.7 km/h 16.1 mph /  25.9 km/h 65 % 0.00 in /  0 mm
01:09 42.4 °F /  5.8 °C 30.3 °F /  -0.9 °C 30.12 in /  1019.9 hPa NNW 6.2 mph /  10 km/h 24.2 mph /  38.9 km/h 62 % 0.00 in /  0 mm
01:14 42.3 °F /  5.7 °C 29.8 °F /  -1.2 °C 30.13 in /  1020.2 hPa North 12.7 mph /  20.4 km/h 21.0 mph /  33.8 km/h 61 % 0.00 in /  0 mm
01:19 42.2 °F /  5.7 °C 28.0 °F /  -2.2 °C 30.14 in /  1020.5 hPa WNW 10.7 mph /  17.2 km/h 20.7 mph /  33.3 km/h 57 % 0.00 in /  0 mm
01:24 42.1 °F /  5.6 °C 27.9 °F /  -2.3 °C 30.13 in /  1020.2 hPa WNW 9.8 mph /  15.8 km/h 17.3 mph /  27.8 km/h 57 % 0.00 in /  0 mm
01:29 42.0 °F /  5.6 °C 27.9 °F /  -2.3 °C 30.13 in /  1020.2 hPa NW 6.7 mph /  10.8 km/h 10.4 mph /  16.7 km/h 57 % 0.00 in /  0 mm
01:34 41.8 °F /  5.4 °C 27.7 °F /  -2.4 °C 30.13 in /  1020.2 hPa NW 4.5 mph /  7.2 km/h 10.4 mph /  16.7 km/h 57 % 0.00 in /  0 mm
01:39 41.7 °F /  5.4 °C 28.0 °F /  -2.2 °C 30.14 in /  1020.5 hPa NW 5.8 mph /  9.3 km/h 13.8 mph /  22.2 km/h 58 % 0.00 in /  0 mm
01:44 41.6 °F /  5.3 °C 28.3 °F /  -2.1 °C 30.14 in /  1020.5 hPa NNW 6.1 mph /  9.8 km/h 11.0 mph /  17.7 km/h 59 % 0.00 in /  0 mm
01:49 41.5 °F /  5.3 °C 27.8 °F /  -2.3 °C 30.14 in /  1020.5 hPa WNW 6.0 mph /  9.7 km/h 12.7 mph /  20.4 km/h 58 % 0.00 in /  0 mm
01:54 41.3 °F /  5.2 °C 28.0 °F /  -2.2 °C 30.14 in /  1020.5 hPa NNW 4.3 mph /  6.9 km/h 9.2 mph /  14.8 km/h 59 % 0.00 in /  0 mm
01:59 41.2 °F /  5.1 °C 28.4 °F /  -2 °C 30.14 in /  1020.5 hPa WNW 4.8 mph /  7.7 km/h 11.5 mph /  18.5 km/h 60 % 0.00 in /  0 mm
02:04 41.1 °F /  5.1 °C 28.7 °F /  -1.8 °C 30.15 in /  1020.9 hPa WNW 0.3 mph /  0.5 km/h 4.0 mph /  6.4 km/h 61 % 0.00 in /  0 mm
02:09 41.0 °F /  5 °C 28.2 °F /  -2.1 °C 30.15 in /  1020.9 hPa WNW 2.9 mph /  4.7 km/h 10.4 mph /  16.7 km/h 60 % 0.00 in /  0 mm
02:14 40.9 °F /  4.9 °C 28.5 °F /  -1.9 °C 30.15 in /  1020.9 hPa NNW 4.9 mph /  7.9 km/h 6.9 mph /  11.1 km/h 61 % 0.00 in /  0 mm
02:19 40.8 °F /  4.9 °C 28.4 °F /  -2 °C 30.15 in /  1020.9 hPa NNW 3.8 mph /  6.1 km/h 8.1 mph /  13 km/h 61 % 0.00 in /  0 mm
02:24 40.7 °F /  4.8 °C 28.3 °F /  -2.1 °C 30.15 in /  1020.9 hPa WNW 6.9 mph /  11.1 km/h 11.5 mph /  18.5 km/h 61 % 0.00 in /  0 mm
02:29 40.6 °F /  4.8 °C 27.8 °F /  -2.3 °C 30.15 in /  1020.9 hPa WNW 5.6 mph /  9 km/h 9.2 mph /  14.8 km/h 60 % 0.00 in /  0 mm
02:34 40.4 °F /  4.7 °C 26.8 °F /  -2.9 °C 30.16 in /  1021.2 hPa WNW 7.9 mph /  12.7 km/h 11.5 mph /  18.5 km/h 58 % 0.00 in /  0 mm
02:39 40.3 °F /  4.6 °C 26.7 °F /  -2.9 °C 30.16 in /  1021.2 hPa NW 6.2 mph /  10 km/h 17.3 mph /  27.8 km/h 58 % 0.00 in /  0 mm
02:44 40.2 °F /  4.6 °C 26.2 °F /  -3.2 °C 30.16 in /  1021.2 hPa West 6.6 mph /  10.6 km/h 15.0 mph /  24.1 km/h 57 % 0.00 in /  0 mm
02:49 40.1 °F /  4.5 °C 26.1 °F /  -3.3 °C 30.16 in /  1021.2 hPa WNW 8.0 mph /  12.9 km/h 14.0 mph /  22.5 km/h 57 % 0.00 in /  0 mm
02:54 39.9 °F /  4.4 °C 25.0 °F /  -3.9 °C 30.17 in /  1021.6 hPa NW 8.6 mph /  13.8 km/h 19.6 mph /  31.5 km/h 55 % 0.00 in /  0 mm
02:59 39.8 °F /  4.3 °C 25.4 °F /  -3.7 °C 30.17 in /  1021.6 hPa West 7.4 mph /  11.9 km/h 16.1 mph /  25.9 km/h 56 % 0.00 in /  0 mm
03:04 39.7 °F /  4.3 °C 24.8 °F /  -4 °C 30.17 in /  1021.6 hPa NW 9.1 mph /  14.6 km/h 17.3 mph /  27.8 km/h 55 % 0.00 in /  0 mm
03:09 39.6 °F /  4.2 °C 26.4 °F /  -3.1 °C 30.17 in /  1021.6 hPa WNW 7.3 mph /  11.7 km/h 11.5 mph /  18.5 km/h 59 % 0.00 in /  0 mm
03:14 39.6 °F /  4.2 °C 26.4 °F /  -3.1 °C 30.17 in /  1021.6 hPa NNW 9.2 mph /  14.8 km/h 17.3 mph /  27.8 km/h 59 % 0.00 in /  0 mm
03:19 39.4 °F /  4.1 °C 25.8 °F /  -3.4 °C 30.17 in /  1021.6 hPa West 8.4 mph /  13.5 km/h 10.4 mph /  16.7 km/h 58 % 0.00 in /  0 mm
03:24 39.2 °F /  4 °C 25.6 °F /  -3.6 °C 30.17 in /  1021.6 hPa WSW 8.9 mph /  14.3 km/h 16.1 mph /  25.9 km/h 58 % 0.00 in /  0 mm
03:29 39.1 °F /  3.9 °C 24.7 °F /  -4.1 °C 30.18 in /  1021.9 hPa WNW 13.1 mph /  21.1 km/h 16.0 mph /  25.7 km/h 56 % 0.00 in /  0 mm
03:34 39.0 °F /  3.9 °C 25.0 °F /  -3.9 °C 30.17 in /  1021.6 hPa NW 5.6 mph /  9 km/h 18.4 mph /  29.6 km/h 57 % 0.00 in /  0 mm
03:39 38.9 °F /  3.8 °C 24.9 °F /  -3.9 °C 30.18 in /  1021.9 hPa NW 9.3 mph /  15 km/h 11.5 mph /  18.5 km/h 57 % 0.00 in /  0 mm
03:44 38.8 °F /  3.8 °C 25.3 °F /  -3.7 °C 30.17 in /  1021.6 hPa West 5.7 mph /  9.2 km/h 11.5 mph /  18.5 km/h 58 % 0.00 in /  0 mm
03:49 38.6 °F /  3.7 °C 25.5 °F /  -3.6 °C 30.17 in /  1021.6 hPa WNW 5.3 mph /  8.5 km/h 17.3 mph /  27.8 km/h 59 % 0.00 in /  0 mm
03:54 38.6 °F /  3.7 °C 24.7 °F /  -4.1 °C 30.17 in /  1021.6 hPa NW 6.7 mph /  10.8 km/h 11.5 mph /  18.5 km/h 57 % 0.00 in /  0 mm
03:59 38.5 °F /  3.6 °C 25.8 °F /  -3.4 °C 30.17 in /  1021.6 hPa North 3.6 mph /  5.8 km/h 11.5 mph /  18.5 km/h 60 % 0.00 in /  0 mm
04:04 38.4 °F /  3.6 °C 25.3 °F /  -3.7 °C 30.18 in /  1021.9 hPa NNW 8.7 mph /  14 km/h 11.5 mph /  18.5 km/h 59 % 0.00 in /  0 mm
04:09 38.4 °F /  3.6 °C 25.3 °F /  -3.7 °C 30.19 in /  1022.2 hPa NW 3.4 mph /  5.5 km/h 11.5 mph /  18.5 km/h 59 % 0.00 in /  0 mm
04:14 38.3 °F /  3.5 °C 26.0 °F /  -3.3 °C 30.19 in /  1022.2 hPa NW 4.3 mph /  6.9 km/h 8.1 mph /  13 km/h 61 % 0.00 in /  0 mm
04:19 38.2 °F /  3.4 °C 25.5 °F /  -3.6 °C 30.19 in /  1022.2 hPa WNW 4.3 mph /  6.9 km/h 11.5 mph /  18.5 km/h 60 % 0.00 in /  0 mm
04:24 38.2 °F /  3.4 °C 25.9 °F /  -3.4 °C 30.19 in /  1022.2 hPa NW 4.6 mph /  7.4 km/h 5.0 mph /  8 km/h 61 % 0.00 in /  0 mm
04:29 38.1 °F /  3.4 °C 25.4 °F /  -3.7 °C 30.20 in /  1022.6 hPa NW 6.2 mph /  10 km/h 11.5 mph /  18.5 km/h 60 % 0.00 in /  0 mm
04:34 38.0 °F /  3.3 °C 25.3 °F /  -3.7 °C 30.20 in /  1022.6 hPa North 6.7 mph /  10.8 km/h 9.2 mph /  14.8 km/h 60 % 0.00 in /  0 mm
04:39 38.0 °F /  3.3 °C 25.3 °F /  -3.7 °C 30.20 in /  1022.6 hPa NW 10.9 mph /  17.5 km/h 18.0 mph /  29 km/h 60 % 0.00 in /  0 mm
04:44 37.9 °F /  3.3 °C 25.6 °F /  -3.6 °C 30.20 in /  1022.6 hPa NNW 4.4 mph /  7.1 km/h 10.4 mph /  16.7 km/h 61 % 0.00 in /  0 mm
04:49 37.9 °F /  3.3 °C 24.8 °F /  -4 °C 30.21 in /  1022.9 hPa WSW 3.3 mph /  5.3 km/h 11.5 mph /  18.5 km/h 59 % 0.00 in /  0 mm
04:54 37.8 °F /  3.2 °C 24.7 °F /  -4.1 °C 30.21 in /  1022.9 hPa West 8.1 mph /  13 km/h 14.0 mph /  22.5 km/h 59 % 0.00 in /  0 mm
04:59 37.8 °F /  3.2 °C 25.1 °F /  -3.8 °C 30.21 in /  1022.9 hPa NW 5.3 mph /  8.5 km/h 8.1 mph /  13 km/h 60 % 0.00 in /  0 mm
05:04 37.7 °F /  3.2 °C 25.8 °F /  -3.4 °C 30.22 in /  1023.2 hPa WNW 6.2 mph /  10 km/h 10.0 mph /  16.1 km/h 62 % 0.00 in /  0 mm
05:09 37.7 °F /  3.2 °C 25.1 °F /  -3.8 °C 30.22 in /  1023.2 hPa WNW 4.1 mph /  6.6 km/h 11.5 mph /  18.5 km/h 60 % 0.00 in /  0 mm
05:14 37.6 °F /  3.1 °C 25.4 °F /  -3.7 °C 30.22 in /  1023.2 hPa WNW 5.1 mph /  8.2 km/h 10.4 mph /  16.7 km/h 61 % 0.00 in /  0 mm
05:19 37.6 °F /  3.1 °C 25.7 °F /  -3.5 °C 30.22 in /  1023.2 hPa West 2.8 mph /  4.5 km/h 10.4 mph /  16.7 km/h 62 % 0.00 in /  0 mm
05:24 37.5 °F /  3.1 °C 25.3 °F /  -3.7 °C 30.23 in /  1023.6 hPa WNW 7.7 mph /  12.4 km/h 11.0 mph /  17.7 km/h 61 % 0.00 in /  0 mm
05:29 37.5 °F /  3.1 °C 24.9 °F /  -3.9 °C 30.22 in /  1023.2 hPa NW 8.6 mph /  13.8 km/h 15.0 mph /  24.1 km/h 60 % 0.00 in /  0 mm
05:34 37.4 °F /  3 °C 25.6 °F /  -3.6 °C 30.23 in /  1023.6 hPa NW 6.0 mph /  9.7 km/h 11.5 mph /  18.5 km/h 62 % 0.00 in /  0 mm
05:39 37.4 °F /  3 °C 25.2 °F /  -3.8 °C 30.23 in /  1023.6 hPa WNW 9.7 mph /  15.6 km/h 15.0 mph /  24.1 km/h 61 % 0.00 in /  0 mm
05:44 37.4 °F /  3 °C 25.2 °F /  -3.8 °C 30.23 in /  1023.6 hPa WNW 6.0 mph /  9.7 km/h 11.5 mph /  18.5 km/h 61 % 0.00 in /  0 mm
05:49 37.3 °F /  2.9 °C 24.7 °F /  -4.1 °C 30.23 in /  1023.6 hPa WNW 6.0 mph /  9.7 km/h 21.9 mph /  35.2 km/h 60 % 0.00 in /  0 mm
05:54 37.3 °F /  2.9 °C 25.1 °F /  -3.8 °C 30.24 in /  1023.9 hPa West 5.9 mph /  9.5 km/h 16.1 mph /  25.9 km/h 61 % 0.00 in /  0 mm
05:59 37.3 °F /  2.9 °C 25.1 °F /  -3.8 °C 30.24 in /  1023.9 hPa WNW 2.4 mph /  3.9 km/h 15.0 mph /  24.1 km/h 61 % 0.00 in /  0 mm
06:04 37.3 °F /  2.9 °C 24.7 °F /  -4.1 °C 30.24 in /  1023.9 hPa NW 8.8 mph /  14.2 km/h 21.9 mph /  35.2 km/h 60 % 0.00 in /  0 mm
06:09 37.3 °F /  2.9 °C 25.1 °F /  -3.8 °C 30.25 in /  1024.3 hPa NNW 7.9 mph /  12.7 km/h 12.7 mph /  20.4 km/h 61 % 0.00 in /  0 mm
06:14 37.3 °F /  2.9 °C 24.7 °F /  -4.1 °C 30.25 in /  1024.3 hPa WNW 6.6 mph /  10.6 km/h 18.4 mph /  29.6 km/h 60 % 0.00 in /  0 mm
06:19 37.2 °F /  2.9 °C 25.0 °F /  -3.9 °C 30.25 in /  1024.3 hPa WNW 4.0 mph /  6.4 km/h 15.0 mph /  24.1 km/h 61 % 0.00 in /  0 mm
06:24 37.1 °F /  2.8 °C 24.9 °F /  -3.9 °C 30.26 in /  1024.6 hPa NNW 10.2 mph /  16.4 km/h 14.0 mph /  22.5 km/h 61 % 0.00 in /  0 mm
06:29 37.1 °F /  2.8 °C 24.5 °F /  -4.2 °C 30.26 in /  1024.6 hPa NNW 3.4 mph /  5.5 km/h 12.7 mph /  20.4 km/h 60 % 0.00 in /  0 mm
06:34 37.1 °F /  2.8 °C 25.3 °F /  -3.7 °C 30.26 in /  1024.6 hPa NW 10.3 mph /  16.6 km/h 16.1 mph /  25.9 km/h 62 % 0.00 in /  0 mm
06:39 37.1 °F /  2.8 °C 25.7 °F /  -3.5 °C 30.27 in /  1024.9 hPa WNW 5.7 mph /  9.2 km/h 11.5 mph /  18.5 km/h 63 % 0.00 in /  0 mm
06:44 37.1 °F /  2.8 °C 26.0 °F /  -3.3 °C 30.28 in /  1025.3 hPa West 6.4 mph /  10.3 km/h 12.7 mph /  20.4 km/h 64 % 0.00 in /  0 mm
06:49 37.1 °F /  2.8 °C 25.7 °F /  -3.5 °C 30.27 in /  1024.9 hPa NW 8.5 mph /  13.7 km/h 10.4 mph /  16.7 km/h 63 % 0.00 in /  0 mm
06:54 37.1 °F /  2.8 °C 25.7 °F /  -3.5 °C 30.28 in /  1025.3 hPa WNW 7.1 mph /  11.4 km/h 11.5 mph /  18.5 km/h 63 % 0.00 in /  0 mm
06:59 37.2 °F /  2.9 °C 25.8 °F /  -3.4 °C 30.27 in /  1024.9 hPa NNE 6.4 mph /  10.3 km/h 17.3 mph /  27.8 km/h 63 % 0.00 in /  0 mm
07:04 37.2 °F /  2.9 °C 26.1 °F /  -3.3 °C 30.28 in /  1025.3 hPa North 6.8 mph /  10.9 km/h 13.8 mph /  22.2 km/h 64 % 0.00 in /  0 mm
07:09 37.1 °F /  2.8 °C 25.3 °F /  -3.7 °C 30.28 in /  1025.3 hPa NNW 8.3 mph /  13.4 km/h 18.4 mph /  29.6 km/h 62 % 0.00 in /  0 mm
07:14 37.1 °F /  2.8 °C 25.3 °F /  -3.7 °C 30.28 in /  1025.3 hPa WSW 7.4 mph /  11.9 km/h 17.3 mph /  27.8 km/h 62 % 0.00 in /  0 mm
07:19 37.0 °F /  2.8 °C 25.2 °F /  -3.8 °C 30.29 in /  1025.6 hPa NW 7.2 mph /  11.6 km/h 15.0 mph /  24.1 km/h 62 % 0.00 in /  0 mm
07:24 37.0 °F /  2.8 °C 24.8 °F /  -4 °C 30.29 in /  1025.6 hPa NW 7.3 mph /  11.7 km/h 10.4 mph /  16.7 km/h 61 % 0.00 in /  0 mm
07:29 36.9 °F /  2.7 °C 25.1 °F /  -3.8 °C 30.29 in /  1025.6 hPa West 8.7 mph /  14 km/h 12.7 mph /  20.4 km/h 62 % 0.00 in /  0 mm
07:34 36.9 °F /  2.7 °C 24.7 °F /  -4.1 °C 30.30 in /  1026 hPa WSW 5.0 mph /  8 km/h 19.6 mph /  31.5 km/h 61 % 0.00 in /  0 mm
07:39 36.9 °F /  2.7 °C 25.1 °F /  -3.8 °C 30.30 in /  1026 hPa NW 8.1 mph /  13 km/h 15.0 mph /  24.1 km/h 62 % 0.00 in /  0 mm
07:44 36.9 °F /  2.7 °C 24.7 °F /  -4.1 °C 30.30 in /  1026 hPa WNW 8.7 mph /  14 km/h 12.7 mph /  20.4 km/h 61 % 0.00 in /  0 mm
07:49 37.0 °F /  2.8 °C 24.8 °F /  -4 °C 30.31 in /  1026.3 hPa West 5.4 mph /  8.7 km/h 11.0 mph /  17.7 km/h 61 % 0.00 in /  0 mm
07:54 37.0 °F /  2.8 °C 24.0 °F /  -4.4 °C 30.31 in /  1026.3 hPa SW 4.2 mph /  6.8 km/h 12.7 mph /  20.4 km/h 59 % 0.00 in /  0 mm
07:59 37.1 °F /  2.8 °C 24.9 °F /  -3.9 °C 30.31 in /  1026.3 hPa WNW 4.6 mph /  7.4 km/h 10.4 mph /  16.7 km/h 61 % 0.00 in /  0 mm
08:04 37.2 °F /  2.9 °C 25.0 °F /  -3.9 °C 30.31 in /  1026.3 hPa NW 3.6 mph /  5.8 km/h 12.7 mph /  20.4 km/h 61 % 0.00 in /  0 mm
08:09 37.2 °F /  2.9 °C 24.6 °F /  -4.1 °C 30.31 in /  1026.3 hPa West 8.6 mph /  13.8 km/h 18.4 mph /  29.6 km/h 60 % 0.00 in /  0 mm
08:14 37.3 °F /  2.9 °C 25.1 °F /  -3.8 °C 30.32 in /  1026.6 hPa NW 8.9 mph /  14.3 km/h 11.5 mph /  18.5 km/h 61 % 0.00 in /  0 mm
Crab Meadow Weather
Compliments of Weather Underground - 1.75 mb

Script developed by  Jim McMurry - jmcmurry@mwt.net Adapted for the template by  Wim van der Kuil - Leuven-Template.eu

Astronomy: Our moon is moving away from the earth at about 3cm per year.